WetterOnline ( https://www.wetteronline.ch )

Wetter aktuell Feldberger Seenlandschaft

Aktuelles Wetter: Feldberg (115m)

6-stündlich | Neueste Meldungen
Ortszeit Temperatur Wetter
Do, 05.12. 13:00 2.6° C wolkenlos
Do, 05.12. 7:00 -0.2° C bedeckt
Do, 05.12. 1:00 0.6° C wolkenlos
Mi, 04.12. 19:00 4.1° C bedeckt
Mi, 04.12. 13:00 4.4° C bewölkt
Mi, 04.12. 7:00 4.5° C bedeckt
Mi, 04.12. 1:00 4.8° C bedeckt
Di, 03.12. 19:00 3.5° C bewölkt
Ortszeit Temperatur Wetter
Do, 05.12. 17:30 0.6° C leicht bewölkt
Do, 05.12. 17:20 0.6° C leicht bewölkt
Do, 05.12. 17:10 0.7° C leicht bewölkt
Do, 05.12. 17:00 0.7° C leicht bewölkt
Do, 05.12. 16:50 0.7° C leicht bewölkt
Do, 05.12. 16:40 0.9° C fast wolkenlos
Do, 05.12. 16:30 0.9° C leicht bewölkt
Do, 05.12. 16:00 1.2° C leicht bewölkt
Do, 05.12. 15:30 1.6° C wolkenlos
Do, 05.12. 15:00 2.1° C wolkenlos
Do, 05.12. 14:30 2.6° C wolkenlos
Do, 05.12. 14:00 3.0° C wolkenlos
Ortszeit Relative Feuchte Sichtweite
Do, 05.12. 13:00 84% 14 km
Do, 05.12. 7:00 97% 5.0 km
Do, 05.12. 1:00 99% 3.5 km
Mi, 04.12. 19:00 86% 19 km
Mi, 04.12. 13:00 93% 8 km
Mi, 04.12. 7:00 95% 6 km
Mi, 04.12. 1:00 99% 2.6 km
Di, 03.12. 19:00 100% 4.6 km
Ortszeit Relative Feuchte Sichtweite
Do, 05.12. 17:30 94% 10 km
Do, 05.12. 17:20 94% -
Do, 05.12. 17:10 93% -
Do, 05.12. 17:00 94% 10 km
Do, 05.12. 16:50 94% -
Do, 05.12. 16:40 93% -
Do, 05.12. 16:30 92% 10 km
Do, 05.12. 16:00 91% 11 km
Do, 05.12. 15:30 89% 11 km
Do, 05.12. 15:00 87% 13 km
Do, 05.12. 14:30 84% 14 km
Do, 05.12. 14:00 84% 14 km
Ortszeit Niederschlagsmenge Niederschlagsart
Do, 05.12. 13:00 0.0 l/m2 in 6 Std. -
Do, 05.12. 7:00 0.0 l/m2 in 12 Std. -
Do, 05.12. 1:00 0.0 l/m2 in 6 Std. -
Mi, 04.12. 19:00 0.0 l/m2 in 12 Std. -
Mi, 04.12. 13:00 0.0 l/m2 in 6 Std. -
Mi, 04.12. 7:00 0.1 l/m2 in 12 Std. Sprühregen
Mi, 04.12. 1:00 0.1 l/m2 in 6 Std. Sprühregen
Di, 03.12. 19:00 0.2 l/m2 in 12 Std. Regen
Ortszeit Niederschlagsmenge Niederschlagsart
Do, 05.12. 17:30 0.0 l/m2 in 1 Std. -
Do, 05.12. 17:20 keine Meldung -
Do, 05.12. 17:10 keine Meldung -
Do, 05.12. 17:00 0.0 l/m2 in 1 Std. -
Do, 05.12. 16:50 keine Meldung -
Do, 05.12. 16:40 keine Meldung -
Do, 05.12. 16:30 0.0 l/m2 in 1 Std. -
Do, 05.12. 16:00 0.0 l/m2 in 1 Std. -
Do, 05.12. 15:30 0.0 l/m2 in 1 Std. -
Do, 05.12. 15:00 0.0 l/m2 in 1 Std. -
Do, 05.12. 14:30 0.0 l/m2 in 1 Std. -
Do, 05.12. 14:00 0.0 l/m2 in 1 Std. -
Ortszeit Stärke Spitze Richtung
km/h Bft. km/h Grad Sektor
Do, 05.12. 13:00 14 3 22 210° SW
Do, 05.12. 7:00 11 2 14 180° S
Do, 05.12. 1:00 7 2 29 230° SW
Mi, 04.12. 19:00 14 3 29 250° W
Mi, 04.12. 13:00 13 3 28 250° W
Mi, 04.12. 7:00 15 3 35 250° W
Mi, 04.12. 1:00 18 3 32 250° W
Di, 03.12. 19:00 15 3 24 250° W
Ortszeit Stärke Spitze Richtung
km/h Bft. km/h Grad Sektor
Do, 05.12. 17:30 15 3 22 210° SW
Do, 05.12. 17:20 15 3 - 210° SW
Do, 05.12. 17:10 14 3 - 200° S
Do, 05.12. 17:00 11 2 22 200° S
Do, 05.12. 16:50 11 2 - 200° S
Do, 05.12. 16:40 13 3 - 210° SW
Do, 05.12. 16:30 13 3 22 220° SW
Do, 05.12. 16:00 14 3 25 230° SW
Do, 05.12. 15:30 14 3 25 210° SW
Do, 05.12. 15:00 20 4 26 210° SW
Do, 05.12. 14:30 18 3 25 200° S
Do, 05.12. 14:00 17 3 20 210° SW
Ortszeit Untergrenze Bedeckung Gattung
total tief tief mittel hoch
Do, 05.12. 13:00 - 0/8 0/8 - - -
Do, 05.12. 7:00 1230 m 8/8 8/8 - - -
Do, 05.12. 1:00 - 0/8 0/8 - - -
Mi, 04.12. 19:00 480 m 8/8 8/8 - - -
Mi, 04.12. 13:00 240 m 7/8 8/8 - - -
Mi, 04.12. 7:00 240 m 8/8 8/8 - - -
Mi, 04.12. 1:00 180 m 8/8 8/8 - - -
Di, 03.12. 19:00 60 m 7/8 7/8 - - -
Ortszeit Bedeckungsgrad in Achtel und Wolkenuntergrenze
Do, 05.12. 17:30 2(10500m) 3(12000m)
Do, 05.12. 17:20 2(10500m) 3(12000m)
Do, 05.12. 17:10 3(10500m) 5(12000m)
Do, 05.12. 17:00 1(10500m) 4(10500m)
Do, 05.12. 16:50 1(10500m) 4(10500m)
Do, 05.12. 16:40 1(10500m) 2(12000m)
Do, 05.12. 16:30 3(9000m) 3(9000m) 5(12000m)
Do, 05.12. 16:00 5(9000m) 7(9000m)
Do, 05.12. 15:30 keine Wolken
Do, 05.12. 15:00 keine Wolken
Do, 05.12. 14:30 keine Wolken
Do, 05.12. 14:00 keine Wolken
Ortszeit Luftdruck NN (hPa) Tendenz (hPa in 3 Std.)
Do, 05.12. 13:00 1018 - 1,4
Do, 05.12. 7:00 1020 - 1,0
Do, 05.12. 1:00 1021 - 1,1
Mi, 04.12. 19:00 1022 + 0,2
Mi, 04.12. 13:00 1022 - 0,4
Mi, 04.12. 7:00 1022 0,0
Mi, 04.12. 1:00 1023 - 0,2
Di, 03.12. 19:00 1023 - 1,2
Ortszeit Luftdruck NN (hPa) Tendenz (hPa in 3 Std.)
Do, 05.12. 17:30 1017 - 0,1
Do, 05.12. 17:20 1017 keine Meldung
Do, 05.12. 17:10 1017 keine Meldung
Do, 05.12. 17:00 1017 - 0,3
Do, 05.12. 16:50 1017 keine Meldung
Do, 05.12. 16:40 1017 keine Meldung
Do, 05.12. 16:30 1018 - 0,5
Do, 05.12. 16:00 1018 - 0,6
Do, 05.12. 15:30 1018 - 1,0
Do, 05.12. 15:00 1018 - 0,9
Do, 05.12. 14:30 1017 - 2,0
Do, 05.12. 14:00 1018 - 1,8
Ortszeit Schneehöhe (cm)
Do, 05.12. 13:00 0
Do, 05.12. 7:00 0
Do, 05.12. 1:00 0
Mi, 04.12. 19:00 0
Mi, 04.12. 13:00 0
Mi, 04.12. 7:00 0
Mi, 04.12. 1:00 0
Di, 03.12. 19:00 0
Ortszeit Schneehöhe (cm)
Do, 05.12. 17:30 0
Do, 05.12. 17:20 0
Do, 05.12. 17:10 0
Do, 05.12. 17:00 0
Do, 05.12. 16:50 0
Do, 05.12. 16:40 0
Do, 05.12. 16:30 0
Do, 05.12. 16:00 0
Do, 05.12. 15:30 0
Do, 05.12. 15:00 0
Do, 05.12. 14:30 0
Do, 05.12. 14:00 0
Link zu dieser Seite / Seite empfehlen

Das Wetter in ...